sensor_id;sensor_type;location;lat;lon;timestamp;pressure;altitude;pressure_sealevel;temperature;humidity
72855;BME280;60991;51.278;22.550;2023-11-21T00:00:24;98324.28;;;3.72;74.50
72855;BME280;60991;51.278;22.550;2023-11-21T00:01:55;98328.44;;;3.62;75.06
72855;BME280;60991;51.278;22.550;2023-11-21T00:03:25;98319.94;;;3.48;75.64
72855;BME280;60991;51.278;22.550;2023-11-21T00:04:55;98319.63;;;3.56;74.85
72855;BME280;60991;51.278;22.550;2023-11-21T00:06:25;98322.25;;;3.56;75.00
72855;BME280;60991;51.278;22.550;2023-11-21T00:07:55;98325.38;;;3.46;75.72
72855;BME280;60991;51.278;22.550;2023-11-21T00:09:26;98325.00;;;3.43;75.42
72855;BME280;60991;51.278;22.550;2023-11-21T00:10:56;98329.09;;;3.39;75.53
72855;BME280;60991;51.278;22.550;2023-11-21T00:12:26;98336.03;;;3.52;75.04
72855;BME280;60991;51.278;22.550;2023-11-21T00:13:56;98341.28;;;3.52;74.96
72855;BME280;60991;51.278;22.550;2023-11-21T00:15:27;98347.59;;;3.44;75.55
72855;BME280;60991;51.278;22.550;2023-11-21T00:16:57;98353.81;;;3.50;75.60
72855;BME280;60991;51.278;22.550;2023-11-21T00:18:27;98349.44;;;3.43;75.70
72855;BME280;60991;51.278;22.550;2023-11-21T00:19:57;98359.28;;;3.48;75.11
72855;BME280;60991;51.278;22.550;2023-11-21T00:21:27;98341.94;;;3.47;75.27
72855;BME280;60991;51.278;22.550;2023-11-21T00:22:58;98340.47;;;3.33;75.51
72855;BME280;60991;51.278;22.550;2023-11-21T00:24:28;98342.72;;;3.29;76.16
72855;BME280;60991;51.278;22.550;2023-11-21T00:25:58;98338.09;;;3.25;75.68
72855;BME280;60991;51.278;22.550;2023-11-21T00:27:29;98350.41;;;3.24;76.39
72855;BME280;60991;51.278;22.550;2023-11-21T00:28:59;98357.31;;;3.19;75.90
72855;BME280;60991;51.278;22.550;2023-11-21T00:30:30;98357.91;;;3.21;76.32
72855;BME280;60991;51.278;22.550;2023-11-21T00:32:00;98356.03;;;3.28;76.07
72855;BME280;60991;51.278;22.550;2023-11-21T00:33:31;98348.88;;;3.35;75.30
72855;BME280;60991;51.278;22.550;2023-11-21T00:35:02;98356.28;;;3.44;75.53
72855;BME280;60991;51.278;22.550;2023-11-21T00:36:32;98358.59;;;3.53;75.13
72855;BME280;60991;51.278;22.550;2023-11-21T00:38:02;98355.97;;;3.53;74.92
72855;BME280;60991;51.278;22.550;2023-11-21T00:39:32;98360.47;;;3.52;75.24
72855;BME280;60991;51.278;22.550;2023-11-21T00:41:03;98358.38;;;3.54;75.24
72855;BME280;60991;51.278;22.550;2023-11-21T00:42:33;98360.16;;;3.60;75.02
72855;BME280;60991;51.278;22.550;2023-11-21T00:44:03;98356.88;;;3.65;74.84
72855;BME280;60991;51.278;22.550;2023-11-21T00:45:34;98358.06;;;3.69;74.76
72855;BME280;60991;51.278;22.550;2023-11-21T00:47:04;98356.59;;;3.73;74.47
72855;BME280;60991;51.278;22.550;2023-11-21T00:48:34;98352.44;;;3.65;74.95
72855;BME280;60991;51.278;22.550;2023-11-21T00:50:05;98357.47;;;3.67;75.04
72855;BME280;60991;51.278;22.550;2023-11-21T00:51:35;98351.84;;;3.63;74.90
72855;BME280;60991;51.278;22.550;2023-11-21T00:53:06;98356.44;;;3.68;74.48
72855;BME280;60991;51.278;22.550;2023-11-21T00:54:36;98352.66;;;3.64;74.98
72855;BME280;60991;51.278;22.550;2023-11-21T00:56:06;98353.16;;;3.54;75.37
72855;BME280;60991;51.278;22.550;2023-11-21T00:57:37;98354.69;;;3.62;75.28
72855;BME280;60991;51.278;22.550;2023-11-21T00:59:07;98357.31;;;3.62;74.83
72855;BME280;60991;51.278;22.550;2023-11-21T01:00:37;98357.47;;;3.67;74.98
72855;BME280;60991;51.278;22.550;2023-11-21T01:02:07;98357.16;;;3.75;74.74
72855;BME280;60991;51.278;22.550;2023-11-21T01:03:38;98347.63;;;3.80;74.67
72855;BME280;60991;51.278;22.550;2023-11-21T01:05:08;98351.63;;;3.83;74.63
72855;BME280;60991;51.278;22.550;2023-11-21T01:06:38;98354.31;;;3.76;74.33
72855;BME280;60991;51.278;22.550;2023-11-21T01:08:08;98349.50;;;3.73;74.89
72855;BME280;60991;51.278;22.550;2023-11-21T01:09:39;98355.78;;;3.72;74.73
72855;BME280;60991;51.278;22.550;2023-11-21T01:11:09;98345.66;;;3.76;74.98
72855;BME280;60991;51.278;22.550;2023-11-21T01:12:39;98351.25;;;3.61;74.79
72855;BME280;60991;51.278;22.550;2023-11-21T01:14:10;98359.56;;;3.58;74.99
72855;BME280;60991;51.278;22.550;2023-11-21T01:15:40;98350.25;;;3.62;74.82
72855;BME280;60991;51.278;22.550;2023-11-21T01:17:10;98351.91;;;3.57;74.92
72855;BME280;60991;51.278;22.550;2023-11-21T01:18:40;98356.13;;;3.58;75.15
72855;BME280;60991;51.278;22.550;2023-11-21T01:20:11;98355.06;;;3.65;75.02
72855;BME280;60991;51.278;22.550;2023-11-21T01:21:41;98353.25;;;3.66;74.98
72855;BME280;60991;51.278;22.550;2023-11-21T01:23:12;98348.22;;;3.64;75.08
72855;BME280;60991;51.278;22.550;2023-11-21T01:24:42;98358.75;;;3.58;75.30
72855;BME280;60991;51.278;22.550;2023-11-21T01:26:13;98361.13;;;3.66;74.33
72855;BME280;60991;51.278;22.550;2023-11-21T01:27:43;98355.28;;;3.64;74.69
72855;BME280;60991;51.278;22.550;2023-11-21T01:29:13;98363.50;;;3.49;75.37
72855;BME280;60991;51.278;22.550;2023-11-21T01:30:43;98369.03;;;3.59;75.50
72855;BME280;60991;51.278;22.550;2023-11-21T01:32:14;98366.22;;;3.61;74.77
72855;BME280;60991;51.278;22.550;2023-11-21T01:33:44;98358.34;;;3.61;75.39
72855;BME280;60991;51.278;22.550;2023-11-21T01:35:14;98361.69;;;3.68;74.56
72855;BME280;60991;51.278;22.550;2023-11-21T01:36:46;98361.28;;;3.71;74.32
72855;BME280;60991;51.278;22.550;2023-11-21T01:38:16;98358.06;;;3.69;74.26
72855;BME280;60991;51.278;22.550;2023-11-21T01:39:47;98354.41;;;3.70;74.60
72855;BME280;60991;51.278;22.550;2023-11-21T01:41:17;98361.03;;;3.72;74.33
72855;BME280;60991;51.278;22.550;2023-11-21T01:42:48;98362.28;;;3.70;74.29
72855;BME280;60991;51.278;22.550;2023-11-21T01:44:18;98364.66;;;3.71;74.56
72855;BME280;60991;51.278;22.550;2023-11-21T01:45:48;98357.84;;;3.70;74.92
72855;BME280;60991;51.278;22.550;2023-11-21T01:47:19;98358.66;;;3.71;74.62
72855;BME280;60991;51.278;22.550;2023-11-21T01:48:50;98357.25;;;3.68;74.62
72855;BME280;60991;51.278;22.550;2023-11-21T01:50:21;98348.06;;;3.59;74.65
72855;BME280;60991;51.278;22.550;2023-11-21T01:51:51;98359.78;;;3.57;74.87
72855;BME280;60991;51.278;22.550;2023-11-21T01:53:23;98353.16;;;3.54;75.03
72855;BME280;60991;51.278;22.550;2023-11-21T01:54:54;98349.97;;;3.52;75.11
72855;BME280;60991;51.278;22.550;2023-11-21T01:56:24;98351.84;;;3.45;75.15
72855;BME280;60991;51.278;22.550;2023-11-21T01:57:55;98356.56;;;3.55;75.20
72855;BME280;60991;51.278;22.550;2023-11-21T01:59:26;98357.31;;;3.62;74.49
72855;BME280;60991;51.278;22.550;2023-11-21T02:00:57;98354.25;;;3.65;74.30
72855;BME280;60991;51.278;22.550;2023-11-21T02:02:28;98354.16;;;3.71;74.37
72855;BME280;60991;51.278;22.550;2023-11-21T02:03:58;98350.03;;;3.64;75.13
72855;BME280;60991;51.278;22.550;2023-11-21T02:05:28;98350.22;;;3.44;75.18
72855;BME280;60991;51.278;22.550;2023-11-21T02:06:59;98358.19;;;3.56;75.36
72855;BME280;60991;51.278;22.550;2023-11-21T02:08:30;98361.59;;;3.56;75.11
72855;BME280;60991;51.278;22.550;2023-11-21T02:10:00;98363.97;;;3.64;74.73
72855;BME280;60991;51.278;22.550;2023-11-21T02:11:32;98363.00;;;3.59;75.22
72855;BME280;60991;51.278;22.550;2023-11-21T02:13:02;98356.50;;;3.61;75.02
72855;BME280;60991;51.278;22.550;2023-11-21T02:14:33;98358.50;;;3.66;74.80
72855;BME280;60991;51.278;22.550;2023-11-21T02:16:03;98366.75;;;3.69;74.71
72855;BME280;60991;51.278;22.550;2023-11-21T02:17:34;98358.88;;;3.69;74.45
72855;BME280;60991;51.278;22.550;2023-11-21T02:19:07;98367.66;;;3.57;74.72
72855;BME280;60991;51.278;22.550;2023-11-21T02:20:37;98369.84;;;3.60;74.82
72855;BME280;60991;51.278;22.550;2023-11-21T02:22:08;98371.81;;;3.64;74.76
72855;BME280;60991;51.278;22.550;2023-11-21T02:23:39;98375.84;;;3.67;74.02
72855;BME280;60991;51.278;22.550;2023-11-21T02:25:09;98383.94;;;3.65;74.86
72855;BME280;60991;51.278;22.550;2023-11-21T02:26:39;98378.38;;;3.55;74.92
72855;BME280;60991;51.278;22.550;2023-11-21T02:28:10;98380.66;;;3.52;74.78
72855;BME280;60991;51.278;22.550;2023-11-21T02:29:40;98394.19;;;3.48;75.16
72855;BME280;60991;51.278;22.550;2023-11-21T02:31:10;98390.09;;;3.53;74.44
72855;BME280;60991;51.278;22.550;2023-11-21T02:32:41;98387.63;;;3.58;75.08
72855;BME280;60991;51.278;22.550;2023-11-21T02:34:11;98393.03;;;3.63;74.63
72855;BME280;60991;51.278;22.550;2023-11-21T02:35:41;98398.88;;;3.65;74.31
72855;BME280;60991;51.278;22.550;2023-11-21T02:37:12;98401.88;;;3.68;74.55
72855;BME280;60991;51.278;22.550;2023-11-21T02:38:42;98400.25;;;3.67;74.51
72855;BME280;60991;51.278;22.550;2023-11-21T02:40:12;98405.09;;;3.70;74.45
72855;BME280;60991;51.278;22.550;2023-11-21T02:41:43;98400.63;;;3.71;74.44
72855;BME280;60991;51.278;22.550;2023-11-21T02:43:15;98397.06;;;3.65;74.17
72855;BME280;60991;51.278;22.550;2023-11-21T02:44:45;98405.88;;;3.71;74.43
72855;BME280;60991;51.278;22.550;2023-11-21T02:46:16;98397.78;;;3.72;74.55
72855;BME280;60991;51.278;22.550;2023-11-21T02:47:46;98400.25;;;3.67;74.33
72855;BME280;60991;51.278;22.550;2023-11-21T02:49:17;98410.38;;;3.64;74.88
72855;BME280;60991;51.278;22.550;2023-11-21T02:50:48;98411.03;;;3.59;74.81
72855;BME280;60991;51.278;22.550;2023-11-21T02:52:18;98408.56;;;3.64;74.64
72855;BME280;60991;51.278;22.550;2023-11-21T02:53:49;98407.72;;;3.70;74.58
72855;BME280;60991;51.278;22.550;2023-11-21T02:55:19;98416.00;;;3.67;74.37
72855;BME280;60991;51.278;22.550;2023-11-21T02:56:49;98406.09;;;3.69;74.61
72855;BME280;60991;51.278;22.550;2023-11-21T02:58:19;98399.84;;;3.70;74.24
72855;BME280;60991;51.278;22.550;2023-11-21T02:59:50;98404.72;;;3.67;74.06
72855;BME280;60991;51.278;22.550;2023-11-21T03:01:20;98405.28;;;3.51;74.58
72855;BME280;60991;51.278;22.550;2023-11-21T03:02:50;98398.84;;;3.46;75.14
72855;BME280;60991;51.278;22.550;2023-11-21T03:04:20;98402.16;;;3.35;75.33
72855;BME280;60991;51.278;22.550;2023-11-21T03:05:51;98403.94;;;3.41;75.00
72855;BME280;60991;51.278;22.550;2023-11-21T03:07:21;98404.13;;;3.40;75.17
72855;BME280;60991;51.278;22.550;2023-11-21T03:08:51;98403.53;;;3.38;74.94
72855;BME280;60991;51.278;22.550;2023-11-21T03:10:21;98406.75;;;3.40;75.07
72855;BME280;60991;51.278;22.550;2023-11-21T03:11:53;98402.75;;;3.37;75.32
72855;BME280;60991;51.278;22.550;2023-11-21T03:13:23;98397.25;;;3.21;75.75
72855;BME280;60991;51.278;22.550;2023-11-21T03:14:53;98403.06;;;3.23;75.79
72855;BME280;60991;51.278;22.550;2023-11-21T03:16:24;98399.78;;;3.34;75.26
72855;BME280;60991;51.278;22.550;2023-11-21T03:17:54;98402.41;;;3.34;75.49
72855;BME280;60991;51.278;22.550;2023-11-21T03:19:24;98403.53;;;3.38;75.33
72855;BME280;60991;51.278;22.550;2023-11-21T03:20:54;98399.84;;;3.45;74.43
72855;BME280;60991;51.278;22.550;2023-11-21T03:22:25;98408.09;;;3.49;74.61
72855;BME280;60991;51.278;22.550;2023-11-21T03:23:55;98404.59;;;3.55;74.69
72855;BME280;60991;51.278;22.550;2023-11-21T03:25:25;98407.09;;;3.50;74.72
72855;BME280;60991;51.278;22.550;2023-11-21T03:26:55;98407.53;;;3.47;75.10
72855;BME280;60991;51.278;22.550;2023-11-21T03:28:26;98408.88;;;3.31;75.37
72855;BME280;60991;51.278;22.550;2023-11-21T03:29:56;98400.53;;;3.34;75.36
72855;BME280;60991;51.278;22.550;2023-11-21T03:31:26;98410.41;;;3.39;74.73
72855;BME280;60991;51.278;22.550;2023-11-21T03:32:56;98409.97;;;3.42;75.05
72855;BME280;60991;51.278;22.550;2023-11-21T03:34:27;98407.72;;;3.45;74.63
72855;BME280;60991;51.278;22.550;2023-11-21T03:35:57;98408.97;;;3.43;74.42
72855;BME280;60991;51.278;22.550;2023-11-21T03:37:28;98411.84;;;3.35;74.81
72855;BME280;60991;51.278;22.550;2023-11-21T03:38:58;98418.59;;;3.24;75.53
72855;BME280;60991;51.278;22.550;2023-11-21T03:40:28;98421.38;;;3.29;75.38
72855;BME280;60991;51.278;22.550;2023-11-21T03:41:58;98417.53;;;3.32;74.65
72855;BME280;60991;51.278;22.550;2023-11-21T03:43:29;98412.16;;;3.20;74.89
72855;BME280;60991;51.278;22.550;2023-11-21T03:44:59;98412.75;;;3.22;75.41
72855;BME280;60991;51.278;22.550;2023-11-21T03:46:29;98410.34;;;3.21;75.02
72855;BME280;60991;51.278;22.550;2023-11-21T03:47:59;98412.56;;;3.24;74.67
72855;BME280;60991;51.278;22.550;2023-11-21T03:49:30;98412.75;;;3.22;75.05
72855;BME280;60991;51.278;22.550;2023-11-21T03:51:00;98406.78;;;3.15;75.77
72855;BME280;60991;51.278;22.550;2023-11-21T03:52:30;98412.66;;;3.10;76.03
72855;BME280;60991;51.278;22.550;2023-11-21T03:54:00;98414.78;;;3.20;75.11
72855;BME280;60991;51.278;22.550;2023-11-21T03:55:30;98420.41;;;3.24;75.27
72855;BME280;60991;51.278;22.550;2023-11-21T03:57:01;98421.84;;;3.20;75.30
72855;BME280;60991;51.278;22.550;2023-11-21T03:58:31;98424.69;;;3.18;75.53
72855;BME280;60991;51.278;22.550;2023-11-21T04:00:02;98424.09;;;3.16;75.06
72855;BME280;60991;51.278;22.550;2023-11-21T04:01:32;98414.19;;;3.18;75.74
72855;BME280;60991;51.278;22.550;2023-11-21T04:03:02;98417.41;;;3.20;75.73
72855;BME280;60991;51.278;22.550;2023-11-21T04:04:33;98415.41;;;3.16;75.44
72855;BME280;60991;51.278;22.550;2023-11-21T04:06:04;98418.63;;;3.18;75.17
72855;BME280;60991;51.278;22.550;2023-11-21T04:07:35;98415.41;;;3.16;75.38
72855;BME280;60991;51.278;22.550;2023-11-21T04:09:05;98417.81;;;2.92;75.79
72855;BME280;60991;51.278;22.550;2023-11-21T04:10:35;98416.53;;;3.01;75.81
72855;BME280;60991;51.278;22.550;2023-11-21T04:12:06;98416.13;;;3.04;75.71
72855;BME280;60991;51.278;22.550;2023-11-21T04:13:36;98419.50;;;3.11;75.63
72855;BME280;60991;51.278;22.550;2023-11-21T04:15:07;98418.28;;;3.14;75.73
72855;BME280;60991;51.278;22.550;2023-11-21T04:16:37;98427.31;;;3.18;75.87
72855;BME280;60991;51.278;22.550;2023-11-21T04:18:07;98423.41;;;3.27;74.90
72855;BME280;60991;51.278;22.550;2023-11-21T04:19:38;98424.06;;;3.23;74.89
72855;BME280;60991;51.278;22.550;2023-11-21T04:21:08;98420.00;;;3.27;75.32
72855;BME280;60991;51.278;22.550;2023-11-21T04:22:39;98430.13;;;3.17;75.80
72855;BME280;60991;51.278;22.550;2023-11-21T04:24:09;98423.19;;;3.04;76.04
72855;BME280;60991;51.278;22.550;2023-11-21T04:25:40;98432.03;;;3.09;75.88
72855;BME280;60991;51.278;22.550;2023-11-21T04:27:10;98433.78;;;3.16;75.27
72855;BME280;60991;51.278;22.550;2023-11-21T04:28:40;98436.69;;;3.07;75.61
72855;BME280;60991;51.278;22.550;2023-11-21T04:30:12;98437.19;;;3.16;75.46
72855;BME280;60991;51.278;22.550;2023-11-21T04:31:42;98436.25;;;3.10;75.30
72855;BME280;60991;51.278;22.550;2023-11-21T04:33:12;98438.81;;;3.17;74.97
72855;BME280;60991;51.278;22.550;2023-11-21T04:34:43;98430.13;;;3.17;75.47
72855;BME280;60991;51.278;22.550;2023-11-21T04:36:13;98442.84;;;3.20;75.01
72855;BME280;60991;51.278;22.550;2023-11-21T04:37:43;98435.34;;;3.23;74.76
72855;BME280;60991;51.278;22.550;2023-11-21T04:39:13;98440.22;;;3.20;75.14
72855;BME280;60991;51.278;22.550;2023-11-21T04:40:44;98438.66;;;3.12;75.92
72855;BME280;60991;51.278;22.550;2023-11-21T04:42:14;98439.75;;;2.98;76.21
72855;BME280;60991;51.278;22.550;2023-11-21T04:43:44;98444.16;;;3.04;75.71
72855;BME280;60991;51.278;22.550;2023-11-21T04:45:14;98446.25;;;2.95;75.33
72855;BME280;60991;51.278;22.550;2023-11-21T04:46:44;98447.84;;;2.96;76.14
72855;BME280;60991;51.278;22.550;2023-11-21T04:48:15;98449.28;;;2.92;75.80
72855;BME280;60991;51.278;22.550;2023-11-21T04:49:45;98439.38;;;2.94;75.96
72855;BME280;60991;51.278;22.550;2023-11-21T04:51:16;98446.56;;;3.05;75.47
72855;BME280;60991;51.278;22.550;2023-11-21T04:52:46;98443.84;;;2.94;75.55
72855;BME280;60991;51.278;22.550;2023-11-21T04:54:17;98445.09;;;2.85;76.44
72855;BME280;60991;51.278;22.550;2023-11-21T04:55:47;98449.53;;;2.84;76.32
72855;BME280;60991;51.278;22.550;2023-11-21T04:57:17;98456.19;;;2.80;76.69
72855;BME280;60991;51.278;22.550;2023-11-21T04:58:47;98450.72;;;2.88;75.83
72855;BME280;60991;51.278;22.550;2023-11-21T05:00:18;98460.72;;;2.98;75.99
72855;BME280;60991;51.278;22.550;2023-11-21T05:01:48;98458.81;;;2.80;76.62
72855;BME280;60991;51.278;22.550;2023-11-21T05:03:18;98465.31;;;2.77;76.71
72855;BME280;60991;51.278;22.550;2023-11-21T05:04:48;98465.84;;;2.86;76.18
72855;BME280;60991;51.278;22.550;2023-11-21T05:06:19;98462.53;;;2.97;76.14
72855;BME280;60991;51.278;22.550;2023-11-21T05:07:49;98473.00;;;3.04;75.31
72855;BME280;60991;51.278;22.550;2023-11-21T05:09:19;98469.53;;;3.10;75.16
72855;BME280;60991;51.278;22.550;2023-11-21T05:10:49;98477.00;;;3.06;75.28
72855;BME280;60991;51.278;22.550;2023-11-21T05:12:20;98475.63;;;3.04;75.23
72855;BME280;60991;51.278;22.550;2023-11-21T05:13:50;98472.19;;;3.03;75.74
72855;BME280;60991;51.278;22.550;2023-11-21T05:15:20;98461.91;;;3.02;76.04
72855;BME280;60991;51.278;22.550;2023-11-21T05:16:50;98468.75;;;3.03;75.45
72855;BME280;60991;51.278;22.550;2023-11-21T05:18:20;98462.50;;;3.04;75.64
72855;BME280;60991;51.278;22.550;2023-11-21T05:19:51;98461.06;;;3.08;75.98
72855;BME280;60991;51.278;22.550;2023-11-21T05:21:21;98461.03;;;3.15;75.34
72855;BME280;60991;51.278;22.550;2023-11-21T05:22:51;98455.84;;;3.08;75.84
72855;BME280;60991;51.278;22.550;2023-11-21T05:24:21;98454.59;;;3.10;75.14
72855;BME280;60991;51.278;22.550;2023-11-21T05:25:52;98456.44;;;3.10;75.35
72855;BME280;60991;51.278;22.550;2023-11-21T05:27:22;98451.38;;;3.08;75.90
72855;BME280;60991;51.278;22.550;2023-11-21T05:28:52;98456.59;;;3.15;74.97
72855;BME280;60991;51.278;22.550;2023-11-21T05:30:22;98462.28;;;3.05;75.49
72855;BME280;60991;51.278;22.550;2023-11-21T05:31:52;98468.16;;;3.01;76.00
72855;BME280;60991;51.278;22.550;2023-11-21T05:33:23;98462.72;;;3.02;75.80
72855;BME280;60991;51.278;22.550;2023-11-21T05:34:53;98471.59;;;3.01;76.09
72855;BME280;60991;51.278;22.550;2023-11-21T05:36:23;98475.03;;;3.02;75.93
72855;BME280;60991;51.278;22.550;2023-11-21T05:37:53;98473.38;;;3.07;75.64
72855;BME280;60991;51.278;22.550;2023-11-21T05:39:24;98464.72;;;3.07;75.90
72855;BME280;60991;51.278;22.550;2023-11-21T05:40:54;98467.38;;;3.00;75.19
72855;BME280;60991;51.278;22.550;2023-11-21T05:42:24;98463.09;;;3.06;75.70
72855;BME280;60991;51.278;22.550;2023-11-21T05:43:54;98471.97;;;3.05;75.27
72855;BME280;60991;51.278;22.550;2023-11-21T05:45:24;98474.59;;;3.05;75.12
72855;BME280;60991;51.278;22.550;2023-11-21T05:46:55;98483.09;;;3.00;75.23
72855;BME280;60991;51.278;22.550;2023-11-21T05:48:25;98486.72;;;2.99;75.69
72855;BME280;60991;51.278;22.550;2023-11-21T05:49:55;98486.50;;;3.01;75.51
72855;BME280;60991;51.278;22.550;2023-11-21T05:51:25;98492.63;;;2.95;75.31
72855;BME280;60991;51.278;22.550;2023-11-21T05:52:56;98488.72;;;3.04;75.67
72855;BME280;60991;51.278;22.550;2023-11-21T05:54:26;98488.19;;;2.95;75.07
72855;BME280;60991;51.278;22.550;2023-11-21T05:55:56;98491.59;;;2.96;75.54
72855;BME280;60991;51.278;22.550;2023-11-21T05:57:26;98491.81;;;2.94;75.89
72855;BME280;60991;51.278;22.550;2023-11-21T05:58:57;98486.78;;;2.93;75.67
72855;BME280;60991;51.278;22.550;2023-11-21T06:00:27;98488.13;;;3.02;74.94
72855;BME280;60991;51.278;22.550;2023-11-21T06:01:57;98499.22;;;3.04;74.81
72855;BME280;60991;51.278;22.550;2023-11-21T06:03:27;98502.44;;;2.99;75.19
72855;BME280;60991;51.278;22.550;2023-11-21T06:04:58;98504.94;;;2.94;75.28
72855;BME280;60991;51.278;22.550;2023-11-21T06:06:28;98506.91;;;2.99;75.37
72855;BME280;60991;51.278;22.550;2023-11-21T06:07:58;98506.69;;;3.00;74.90
72855;BME280;60991;51.278;22.550;2023-11-21T06:09:28;98513.16;;;2.98;75.58
72855;BME280;60991;51.278;22.550;2023-11-21T06:10:58;98520.00;;;2.99;74.79
72855;BME280;60991;51.278;22.550;2023-11-21T06:12:29;98526.03;;;3.06;75.36
72855;BME280;60991;51.278;22.550;2023-11-21T06:13:59;98523.41;;;3.06;75.17
72855;BME280;60991;51.278;22.550;2023-11-21T06:15:29;98526.00;;;3.12;74.75
72855;BME280;60991;51.278;22.550;2023-11-21T06:17:00;98519.94;;;3.12;74.68
72855;BME280;60991;51.278;22.550;2023-11-21T06:18:30;98522.25;;;2.95;75.37
72855;BME280;60991;51.278;22.550;2023-11-21T06:20:00;98518.06;;;2.88;75.63
72855;BME280;60991;51.278;22.550;2023-11-21T06:21:30;98521.25;;;2.96;74.87
72855;BME280;60991;51.278;22.550;2023-11-21T06:23:01;98520.44;;;2.96;74.98
72855;BME280;60991;51.278;22.550;2023-11-21T06:24:31;98519.19;;;2.98;74.92
72855;BME280;60991;51.278;22.550;2023-11-21T06:26:01;98520.66;;;2.94;75.65
72855;BME280;60991;51.278;22.550;2023-11-21T06:27:32;98525.44;;;2.97;75.01
72855;BME280;60991;51.278;22.550;2023-11-21T06:29:03;98529.69;;;2.98;74.96
72855;BME280;60991;51.278;22.550;2023-11-21T06:30:34;98538.00;;;2.95;75.17
72855;BME280;60991;51.278;22.550;2023-11-21T06:32:04;98532.34;;;2.92;75.23
72855;BME280;60991;51.278;22.550;2023-11-21T06:33:35;98535.31;;;3.02;75.16
72855;BME280;60991;51.278;22.550;2023-11-21T06:35:06;98536.91;;;3.09;74.69
72855;BME280;60991;51.278;22.550;2023-11-21T06:36:37;98539.72;;;3.08;74.40
72855;BME280;60991;51.278;22.550;2023-11-21T06:38:07;98533.28;;;3.04;75.09
72855;BME280;60991;51.278;22.550;2023-11-21T06:39:37;98539.13;;;3.06;75.05
72855;BME280;60991;51.278;22.550;2023-11-21T06:41:07;98535.72;;;3.05;74.99
72855;BME280;60991;51.278;22.550;2023-11-21T06:42:37;98535.16;;;2.97;74.54
72855;BME280;60991;51.278;22.550;2023-11-21T06:44:08;98535.72;;;2.99;75.18
72855;BME280;60991;51.278;22.550;2023-11-21T06:45:38;98538.13;;;3.00;74.73
72855;BME280;60991;51.278;22.550;2023-11-21T06:47:08;98537.09;;;3.08;74.24
72855;BME280;60991;51.278;22.550;2023-11-21T06:48:38;98534.50;;;3.01;74.85
72855;BME280;60991;51.278;22.550;2023-11-21T06:50:09;98542.44;;;2.95;75.03
72855;BME280;60991;51.278;22.550;2023-11-21T06:51:39;98536.94;;;3.03;74.81
72855;BME280;60991;51.278;22.550;2023-11-21T06:53:09;98539.97;;;3.00;74.95
72855;BME280;60991;51.278;22.550;2023-11-21T06:54:39;98540.56;;;3.02;74.78
72855;BME280;60991;51.278;22.550;2023-11-21T06:56:17;98547.78;;;3.13;74.99
72855;BME280;60991;51.278;22.550;2023-11-21T06:57:47;98547.38;;;3.09;74.84
72855;BME280;60991;51.278;22.550;2023-11-21T06:59:17;98542.94;;;3.10;74.42
72855;BME280;60991;51.278;22.550;2023-11-21T07:00:47;98537.91;;;3.08;74.93
72855;BME280;60991;51.278;22.550;2023-11-21T07:02:18;98529.66;;;3.05;74.37
72855;BME280;60991;51.278;22.550;2023-11-21T07:03:48;98539.94;;;3.06;74.17
72855;BME280;60991;51.278;22.550;2023-11-21T07:05:18;98540.50;;;3.15;74.57
72855;BME280;60991;51.278;22.550;2023-11-21T07:06:48;98543.69;;;3.17;74.65
72855;BME280;60991;51.278;22.550;2023-11-21T07:08:19;98546.13;;;3.19;74.70
72855;BME280;60991;51.278;22.550;2023-11-21T07:09:49;98553.19;;;3.18;74.25
72855;BME280;60991;51.278;22.550;2023-11-21T07:11:19;98556.28;;;3.08;74.88
72855;BME280;60991;51.278;22.550;2023-11-21T07:12:49;98553.03;;;3.06;74.53
72855;BME280;60991;51.278;22.550;2023-11-21T07:14:19;98558.31;;;3.00;75.07
72855;BME280;60991;51.278;22.550;2023-11-21T07:15:50;98564.34;;;3.07;75.04
72855;BME280;60991;51.278;22.550;2023-11-21T07:17:20;98566.97;;;3.07;74.49
72855;BME280;60991;51.278;22.550;2023-11-21T07:18:50;98568.16;;;3.11;75.00
72855;BME280;60991;51.278;22.550;2023-11-21T07:20:21;98575.44;;;3.09;74.27
72855;BME280;60991;51.278;22.550;2023-11-21T07:21:51;98577.84;;;3.10;74.78
72855;BME280;60991;51.278;22.550;2023-11-21T07:23:21;98577.66;;;3.05;74.68
72855;BME280;60991;51.278;22.550;2023-11-21T07:24:52;98574.63;;;3.08;74.60
72855;BME280;60991;51.278;22.550;2023-11-21T07:26:22;98577.44;;;3.13;74.79
72855;BME280;60991;51.278;22.550;2023-11-21T07:27:52;98572.59;;;3.10;74.25
72855;BME280;60991;51.278;22.550;2023-11-21T07:29:25;98580.69;;;3.02;75.21
72855;BME280;60991;51.278;22.550;2023-11-21T07:30:55;98579.06;;;3.08;75.02
72855;BME280;60991;51.278;22.550;2023-11-21T07:32:26;98582.28;;;3.10;74.32
72855;BME280;60991;51.278;22.550;2023-11-21T07:33:56;98576.22;;;3.09;74.32
72855;BME280;60991;51.278;22.550;2023-11-21T07:35:26;98575.63;;;3.14;74.31
72855;BME280;60991;51.278;22.550;2023-11-21T07:36:56;98577.06;;;3.03;74.75
72855;BME280;60991;51.278;22.550;2023-11-21T07:38:27;98579.13;;;2.95;74.44
72855;BME280;60991;51.278;22.550;2023-11-21T07:39:57;98576.91;;;2.92;75.32
72855;BME280;60991;51.278;22.550;2023-11-21T07:41:27;98582.34;;;2.90;75.04
72855;BME280;60991;51.278;22.550;2023-11-21T07:42:57;98582.56;;;2.89;74.81
72855;BME280;60991;51.278;22.550;2023-11-21T07:44:28;98586.78;;;2.96;75.47
72855;BME280;60991;51.278;22.550;2023-11-21T07:45:59;98579.69;;;3.03;74.58
72855;BME280;60991;51.278;22.550;2023-11-21T07:47:29;98582.50;;;3.02;74.58
72855;BME280;60991;51.278;22.550;2023-11-21T07:48:59;98581.28;;;3.11;74.40
72855;BME280;60991;51.278;22.550;2023-11-21T07:50:29;98579.59;;;3.17;74.65
72855;BME280;60991;51.278;22.550;2023-11-21T07:52:00;98578.03;;;3.09;74.79
72855;BME280;60991;51.278;22.550;2023-11-21T07:53:30;98576.41;;;3.15;74.88
72855;BME280;60991;51.278;22.550;2023-11-21T07:55:00;98579.41;;;3.18;74.84
72855;BME280;60991;51.278;22.550;2023-11-21T07:56:30;98577.38;;;3.20;74.30
72855;BME280;60991;51.278;22.550;2023-11-21T07:58:01;98582.81;;;3.19;74.34